sensor_id;sensor_type;location;lat;lon;timestamp;temperature;humidity
12089;DHT22;6107;49.078;8.578;2023-03-30T00:02:10;11.90;99.90
12089;DHT22;6107;49.078;8.578;2023-03-30T00:04:37;11.90;99.90
12089;DHT22;6107;49.078;8.578;2023-03-30T00:07:02;11.90;99.90
12089;DHT22;6107;49.078;8.578;2023-03-30T00:09:30;11.90;99.90
12089;DHT22;6107;49.078;8.578;2023-03-30T00:11:57;11.90;99.90
12089;DHT22;6107;49.078;8.578;2023-03-30T00:14:28;12.00;99.90
12089;DHT22;6107;49.078;8.578;2023-03-30T00:17:04;11.90;99.90
12089;DHT22;6107;49.078;8.578;2023-03-30T00:19:30;12.00;99.90
12089;DHT22;6107;49.078;8.578;2023-03-30T00:21:55;11.90;99.90
12089;DHT22;6107;49.078;8.578;2023-03-30T00:24:22;11.90;99.90
12089;DHT22;6107;49.078;8.578;2023-03-30T00:26:47;11.90;99.90
12089;DHT22;6107;49.078;8.578;2023-03-30T00:29:13;11.80;99.90
12089;DHT22;6107;49.078;8.578;2023-03-30T00:31:38;11.60;99.90
12089;DHT22;6107;49.078;8.578;2023-03-30T00:34:04;11.70;99.90
12089;DHT22;6107;49.078;8.578;2023-03-30T00:36:30;11.80;99.90
12089;DHT22;6107;49.078;8.578;2023-03-30T00:39:05;11.80;99.90
12089;DHT22;6107;49.078;8.578;2023-03-30T00:41:35;11.80;99.90
12089;DHT22;6107;49.078;8.578;2023-03-30T00:44:07;11.80;99.90
12089;DHT22;6107;49.078;8.578;2023-03-30T00:46:33;11.80;99.90
12089;DHT22;6107;49.078;8.578;2023-03-30T00:49:05;11.80;99.90
12089;DHT22;6107;49.078;8.578;2023-03-30T00:51:36;11.70;99.90
12089;DHT22;6107;49.078;8.578;2023-03-30T00:54:13;11.70;99.90
12089;DHT22;6107;49.078;8.578;2023-03-30T00:56:39;11.60;99.90
12089;DHT22;6107;49.078;8.578;2023-03-30T00:59:05;11.70;99.90
12089;DHT22;6107;49.078;8.578;2023-03-30T01:01:31;11.50;99.90
12089;DHT22;6107;49.078;8.578;2023-03-30T01:04:03;11.30;99.90
12089;DHT22;6107;49.078;8.578;2023-03-30T01:06:30;11.40;99.90
12089;DHT22;6107;49.078;8.578;2023-03-30T01:08:56;11.50;99.90
12089;DHT22;6107;49.078;8.578;2023-03-30T01:11:22;11.40;99.90
12089;DHT22;6107;49.078;8.578;2023-03-30T01:13:51;11.30;99.90
12089;DHT22;6107;49.078;8.578;2023-03-30T01:30:38;11.60;99.90
12089;DHT22;6107;49.078;8.578;2023-03-30T01:36:24;11.60;99.90
12089;DHT22;6107;49.078;8.578;2023-03-30T01:42:17;12.60;99.90
12089;DHT22;6107;49.078;8.578;2023-03-30T01:50:49;13.40;99.90
12089;DHT22;6107;49.078;8.578;2023-03-30T01:53:24;13.80;99.90
12089;DHT22;6107;49.078;8.578;2023-03-30T01:59:04;14.20;99.90
12089;DHT22;6107;49.078;8.578;2023-03-30T02:01:33;13.80;99.90
12089;DHT22;6107;49.078;8.578;2023-03-30T02:04:00;13.50;99.90
12089;DHT22;6107;49.078;8.578;2023-03-30T02:06:40;13.90;99.90
12089;DHT22;6107;49.078;8.578;2023-03-30T02:09:10;14.60;99.90
12089;DHT22;6107;49.078;8.578;2023-03-30T02:11:39;15.40;99.90
12089;DHT22;6107;49.078;8.578;2023-03-30T02:14:06;15.10;99.90
12089;DHT22;6107;49.078;8.578;2023-03-30T02:16:37;15.00;99.90
12089;DHT22;6107;49.078;8.578;2023-03-30T02:19:04;15.50;99.90
12089;DHT22;6107;49.078;8.578;2023-03-30T02:21:31;15.20;99.90
12089;DHT22;6107;49.078;8.578;2023-03-30T02:23:58;15.30;99.90
12089;DHT22;6107;49.078;8.578;2023-03-30T02:26:25;15.10;99.90
12089;DHT22;6107;49.078;8.578;2023-03-30T02:28:52;15.00;99.90
12089;DHT22;6107;49.078;8.578;2023-03-30T02:31:18;15.00;99.90
12089;DHT22;6107;49.078;8.578;2023-03-30T02:36:37;14.90;99.90
12089;DHT22;6107;49.078;8.578;2023-03-30T02:42:00;15.00;99.90
12089;DHT22;6107;49.078;8.578;2023-03-30T02:47:15;15.10;99.90
12089;DHT22;6107;49.078;8.578;2023-03-30T02:49:51;15.00;99.90
12089;DHT22;6107;49.078;8.578;2023-03-30T02:52:36;14.90;99.90
12089;DHT22;6107;49.078;8.578;2023-03-30T02:58:13;14.40;99.90
12089;DHT22;6107;49.078;8.578;2023-03-30T03:03:19;14.00;99.90
12089;DHT22;6107;49.078;8.578;2023-03-30T03:05:48;14.00;99.90
12089;DHT22;6107;49.078;8.578;2023-03-30T03:08:22;13.70;99.90
12089;DHT22;6107;49.078;8.578;2023-03-30T03:10:48;13.60;99.90
12089;DHT22;6107;49.078;8.578;2023-03-30T03:13:14;13.50;99.90
12089;DHT22;6107;49.078;8.578;2023-03-30T03:15:40;13.50;99.90
12089;DHT22;6107;49.078;8.578;2023-03-30T03:18:10;13.70;99.90
12089;DHT22;6107;49.078;8.578;2023-03-30T03:20:37;13.30;99.90
12089;DHT22;6107;49.078;8.578;2023-03-30T03:23:03;13.40;99.90
12089;DHT22;6107;49.078;8.578;2023-03-30T03:25:28;13.40;99.90
12089;DHT22;6107;49.078;8.578;2023-03-30T03:27:54;13.30;99.90
12089;DHT22;6107;49.078;8.578;2023-03-30T03:30:20;13.30;99.90
12089;DHT22;6107;49.078;8.578;2023-03-30T03:32:45;13.40;99.90
12089;DHT22;6107;49.078;8.578;2023-03-30T03:35:11;13.30;99.90
12089;DHT22;6107;49.078;8.578;2023-03-30T03:37:37;13.30;99.90
12089;DHT22;6107;49.078;8.578;2023-03-30T03:40:02;13.10;99.90
12089;DHT22;6107;49.078;8.578;2023-03-30T03:42:30;13.00;99.90
12089;DHT22;6107;49.078;8.578;2023-03-30T03:44:55;13.20;99.90
12089;DHT22;6107;49.078;8.578;2023-03-30T03:47:21;13.20;99.90
12089;DHT22;6107;49.078;8.578;2023-03-30T03:49:47;12.80;99.90
12089;DHT22;6107;49.078;8.578;2023-03-30T03:52:12;12.60;99.90
12089;DHT22;6107;49.078;8.578;2023-03-30T03:54:38;12.60;99.90
12089;DHT22;6107;49.078;8.578;2023-03-30T03:57:03;12.60;99.90
12089;DHT22;6107;49.078;8.578;2023-03-30T03:59:30;12.40;99.90
12089;DHT22;6107;49.078;8.578;2023-03-30T04:01:56;12.50;99.90
12089;DHT22;6107;49.078;8.578;2023-03-30T04:04:21;12.70;99.90
12089;DHT22;6107;49.078;8.578;2023-03-30T04:06:47;12.70;99.90
12089;DHT22;6107;49.078;8.578;2023-03-30T04:09:12;12.80;99.90
12089;DHT22;6107;49.078;8.578;2023-03-30T04:11:38;12.70;99.90
12089;DHT22;6107;49.078;8.578;2023-03-30T04:14:03;12.70;99.90
12089;DHT22;6107;49.078;8.578;2023-03-30T04:16:29;12.80;99.90
12089;DHT22;6107;49.078;8.578;2023-03-30T04:18:54;12.80;99.90
12089;DHT22;6107;49.078;8.578;2023-03-30T04:21:21;12.50;99.90
12089;DHT22;6107;49.078;8.578;2023-03-30T04:23:47;12.40;99.90
12089;DHT22;6107;49.078;8.578;2023-03-30T04:26:13;12.40;99.90
12089;DHT22;6107;49.078;8.578;2023-03-30T04:28:40;12.30;99.90
12089;DHT22;6107;49.078;8.578;2023-03-30T04:31:07;12.30;99.90
12089;DHT22;6107;49.078;8.578;2023-03-30T04:33:38;12.20;99.90
12089;DHT22;6107;49.078;8.578;2023-03-30T04:36:12;12.40;99.90
12089;DHT22;6107;49.078;8.578;2023-03-30T04:38:44;12.40;99.90
12089;DHT22;6107;49.078;8.578;2023-03-30T04:41:10;12.50;99.90
12089;DHT22;6107;49.078;8.578;2023-03-30T04:43:38;12.40;99.90
12089;DHT22;6107;49.078;8.578;2023-03-30T04:46:04;12.20;99.90
12089;DHT22;6107;49.078;8.578;2023-03-30T04:48:30;12.20;99.90
12089;DHT22;6107;49.078;8.578;2023-03-30T04:50:56;12.30;99.90
12089;DHT22;6107;49.078;8.578;2023-03-30T04:53:21;12.40;99.90
12089;DHT22;6107;49.078;8.578;2023-03-30T04:55:49;12.20;99.90
12089;DHT22;6107;49.078;8.578;2023-03-30T04:58:15;12.40;99.90
12089;DHT22;6107;49.078;8.578;2023-03-30T05:00:41;12.40;99.90
12089;DHT22;6107;49.078;8.578;2023-03-30T05:03:06;12.50;99.90
12089;DHT22;6107;49.078;8.578;2023-03-30T05:05:32;12.50;99.90
12089;DHT22;6107;49.078;8.578;2023-03-30T05:07:58;12.50;99.90
12089;DHT22;6107;49.078;8.578;2023-03-30T05:10:24;12.50;99.90
12089;DHT22;6107;49.078;8.578;2023-03-30T05:12:53;12.40;99.90
12089;DHT22;6107;49.078;8.578;2023-03-30T05:15:18;12.50;99.90
12089;DHT22;6107;49.078;8.578;2023-03-30T05:17:43;12.50;99.90
12089;DHT22;6107;49.078;8.578;2023-03-30T05:20:09;12.40;99.90
12089;DHT22;6107;49.078;8.578;2023-03-30T05:22:35;12.40;99.90
12089;DHT22;6107;49.078;8.578;2023-03-30T05:25:01;12.40;99.90
12089;DHT22;6107;49.078;8.578;2023-03-30T05:27:27;12.50;99.90
12089;DHT22;6107;49.078;8.578;2023-03-30T05:29:53;12.50;99.90
12089;DHT22;6107;49.078;8.578;2023-03-30T05:32:18;12.50;99.90
12089;DHT22;6107;49.078;8.578;2023-03-30T05:34:44;12.40;99.90
12089;DHT22;6107;49.078;8.578;2023-03-30T05:37:09;12.20;99.90
12089;DHT22;6107;49.078;8.578;2023-03-30T05:39:35;12.40;99.90
12089;DHT22;6107;49.078;8.578;2023-03-30T05:42:01;12.90;99.90
12089;DHT22;6107;49.078;8.578;2023-03-30T05:44:26;13.20;99.90
12089;DHT22;6107;49.078;8.578;2023-03-30T05:46:52;13.20;99.90
12089;DHT22;6107;49.078;8.578;2023-03-30T05:49:17;13.20;99.90
12089;DHT22;6107;49.078;8.578;2023-03-30T05:51:43;13.10;99.90
12089;DHT22;6107;49.078;8.578;2023-03-30T05:54:10;13.10;99.90
12089;DHT22;6107;49.078;8.578;2023-03-30T05:56:37;13.00;99.90
12089;DHT22;6107;49.078;8.578;2023-03-30T05:59:02;13.10;99.90
12089;DHT22;6107;49.078;8.578;2023-03-30T06:01:29;13.10;99.90
12089;DHT22;6107;49.078;8.578;2023-03-30T06:03:55;13.10;99.90
12089;DHT22;6107;49.078;8.578;2023-03-30T06:06:21;13.10;99.90
12089;DHT22;6107;49.078;8.578;2023-03-30T06:08:46;13.20;99.90
12089;DHT22;6107;49.078;8.578;2023-03-30T06:11:13;13.20;99.90
12089;DHT22;6107;49.078;8.578;2023-03-30T06:13:39;13.20;99.90
12089;DHT22;6107;49.078;8.578;2023-03-30T06:16:05;13.20;99.90
12089;DHT22;6107;49.078;8.578;2023-03-30T06:18:31;13.10;99.90
12089;DHT22;6107;49.078;8.578;2023-03-30T06:20:56;13.00;99.90
12089;DHT22;6107;49.078;8.578;2023-03-30T06:23:22;13.10;99.90
12089;DHT22;6107;49.078;8.578;2023-03-30T06:25:48;13.10;99.90
12089;DHT22;6107;49.078;8.578;2023-03-30T06:28:18;13.10;99.90
12089;DHT22;6107;49.078;8.578;2023-03-30T06:30:44;13.10;99.90
12089;DHT22;6107;49.078;8.578;2023-03-30T06:33:13;13.10;99.90
12089;DHT22;6107;49.078;8.578;2023-03-30T06:35:43;13.10;99.90
12089;DHT22;6107;49.078;8.578;2023-03-30T06:38:09;13.00;99.90
12089;DHT22;6107;49.078;8.578;2023-03-30T06:40:34;13.00;99.90
12089;DHT22;6107;49.078;8.578;2023-03-30T06:43:00;13.00;99.90
12089;DHT22;6107;49.078;8.578;2023-03-30T06:45:25;12.90;99.90
12089;DHT22;6107;49.078;8.578;2023-03-30T06:47:51;12.90;99.90
12089;DHT22;6107;49.078;8.578;2023-03-30T06:50:16;12.90;99.90
12089;DHT22;6107;49.078;8.578;2023-03-30T06:52:42;12.90;99.90
12089;DHT22;6107;49.078;8.578;2023-03-30T06:55:07;13.00;99.90
12089;DHT22;6107;49.078;8.578;2023-03-30T06:57:33;12.90;99.90
12089;DHT22;6107;49.078;8.578;2023-03-30T06:59:59;12.80;99.90
12089;DHT22;6107;49.078;8.578;2023-03-30T07:02:24;12.90;99.90
12089;DHT22;6107;49.078;8.578;2023-03-30T07:04:50;12.80;99.90
12089;DHT22;6107;49.078;8.578;2023-03-30T07:07:16;12.80;99.90
12089;DHT22;6107;49.078;8.578;2023-03-30T07:09:42;12.80;99.90
12089;DHT22;6107;49.078;8.578;2023-03-30T07:12:08;12.80;99.90
12089;DHT22;6107;49.078;8.578;2023-03-30T07:14:33;12.70;99.90
12089;DHT22;6107;49.078;8.578;2023-03-30T07:16:59;12.70;99.90
12089;DHT22;6107;49.078;8.578;2023-03-30T07:19:24;12.80;99.90
12089;DHT22;6107;49.078;8.578;2023-03-30T07:21:50;12.70;99.90
12089;DHT22;6107;49.078;8.578;2023-03-30T07:24:16;12.70;99.90
12089;DHT22;6107;49.078;8.578;2023-03-30T07:26:41;12.70;99.90
12089;DHT22;6107;49.078;8.578;2023-03-30T07:29:07;12.70;99.90
12089;DHT22;6107;49.078;8.578;2023-03-30T07:31:33;12.80;99.90
12089;DHT22;6107;49.078;8.578;2023-03-30T07:33:59;12.80;99.90
12089;DHT22;6107;49.078;8.578;2023-03-30T07:36:24;12.90;99.90
12089;DHT22;6107;49.078;8.578;2023-03-30T07:38:50;12.90;99.90
12089;DHT22;6107;49.078;8.578;2023-03-30T07:41:16;12.90;99.90
12089;DHT22;6107;49.078;8.578;2023-03-30T07:43:42;12.90;99.90
12089;DHT22;6107;49.078;8.578;2023-03-30T07:46:08;13.00;99.90
12089;DHT22;6107;49.078;8.578;2023-03-30T07:48:34;13.00;99.90
12089;DHT22;6107;49.078;8.578;2023-03-30T07:51:05;12.90;99.90
12089;DHT22;6107;49.078;8.578;2023-03-30T07:53:31;12.90;99.90
12089;DHT22;6107;49.078;8.578;2023-03-30T07:55:57;12.80;99.90
12089;DHT22;6107;49.078;8.578;2023-03-30T07:58:23;13.00;99.90
12089;DHT22;6107;49.078;8.578;2023-03-30T08:00:50;12.80;99.90
12089;DHT22;6107;49.078;8.578;2023-03-30T08:03:18;12.80;99.90
12089;DHT22;6107;49.078;8.578;2023-03-30T08:05:51;12.70;99.90
12089;DHT22;6107;49.078;8.578;2023-03-30T08:08:18;12.70;99.90
12089;DHT22;6107;49.078;8.578;2023-03-30T08:10:43;12.80;99.90
12089;DHT22;6107;49.078;8.578;2023-03-30T08:13:09;12.80;99.90
12089;DHT22;6107;49.078;8.578;2023-03-30T08:15:36;12.80;99.90
12089;DHT22;6107;49.078;8.578;2023-03-30T08:18:02;12.90;99.90
12089;DHT22;6107;49.078;8.578;2023-03-30T08:20:31;12.80;99.90
12089;DHT22;6107;49.078;8.578;2023-03-30T08:22:57;12.90;99.90
12089;DHT22;6107;49.078;8.578;2023-03-30T08:25:23;12.90;99.90
12089;DHT22;6107;49.078;8.578;2023-03-30T08:27:48;13.00;99.90
12089;DHT22;6107;49.078;8.578;2023-03-30T08:30:14;13.10;99.90
12089;DHT22;6107;49.078;8.578;2023-03-30T08:32:40;13.20;99.90
12089;DHT22;6107;49.078;8.578;2023-03-30T08:35:06;13.20;99.90
12089;DHT22;6107;49.078;8.578;2023-03-30T08:37:32;13.20;99.90
12089;DHT22;6107;49.078;8.578;2023-03-30T08:39:57;13.30;99.90
12089;DHT22;6107;49.078;8.578;2023-03-30T08:45:16;13.50;99.90
12089;DHT22;6107;49.078;8.578;2023-03-30T08:47:45;13.80;99.90
12089;DHT22;6107;49.078;8.578;2023-03-30T08:50:18;13.80;99.90
12089;DHT22;6107;49.078;8.578;2023-03-30T08:52:46;14.10;99.90
12089;DHT22;6107;49.078;8.578;2023-03-30T08:55:35;14.30;99.90
12089;DHT22;6107;49.078;8.578;2023-03-30T08:58:24;14.60;99.90
12089;DHT22;6107;49.078;8.578;2023-03-30T09:01:13;14.70;99.90
12089;DHT22;6107;49.078;8.578;2023-03-30T09:06:58;14.40;99.90
12089;DHT22;6107;49.078;8.578;2023-03-30T09:09:28;14.60;99.90
12089;DHT22;6107;49.078;8.578;2023-03-30T09:12:05;14.40;99.90
12089;DHT22;6107;49.078;8.578;2023-03-30T09:14:58;14.30;99.90
12089;DHT22;6107;49.078;8.578;2023-03-30T09:17:31;14.40;99.90
12089;DHT22;6107;49.078;8.578;2023-03-30T09:20:10;14.30;99.90
12089;DHT22;6107;49.078;8.578;2023-03-30T09:22:40;14.30;99.90
12089;DHT22;6107;49.078;8.578;2023-03-30T09:25:16;14.40;99.90
12089;DHT22;6107;49.078;8.578;2023-03-30T09:27:48;14.20;99.90
12089;DHT22;6107;49.078;8.578;2023-03-30T09:30:22;14.30;99.90
12089;DHT22;6107;49.078;8.578;2023-03-30T09:33:05;14.20;99.90
12089;DHT22;6107;49.078;8.578;2023-03-30T09:35:39;14.20;99.90
12089;DHT22;6107;49.078;8.578;2023-03-30T09:38:12;14.10;99.90
12089;DHT22;6107;49.078;8.578;2023-03-30T09:41:02;14.10;99.90
12089;DHT22;6107;49.078;8.578;2023-03-30T09:43:40;14.20;99.90
12089;DHT22;6107;49.078;8.578;2023-03-30T09:46:09;14.40;99.90
12089;DHT22;6107;49.078;8.578;2023-03-30T09:48:40;14.30;99.90
12089;DHT22;6107;49.078;8.578;2023-03-30T09:51:14;14.30;99.90
12089;DHT22;6107;49.078;8.578;2023-03-30T09:53:42;14.30;99.90
12089;DHT22;6107;49.078;8.578;2023-03-30T09:56:16;14.10;99.90
12089;DHT22;6107;49.078;8.578;2023-03-30T09:58:42;14.10;99.90
12089;DHT22;6107;49.078;8.578;2023-03-30T10:01:10;14.00;99.90
12089;DHT22;6107;49.078;8.578;2023-03-30T10:03:37;14.00;99.90
12089;DHT22;6107;49.078;8.578;2023-03-30T10:06:06;14.10;99.90
12089;DHT22;6107;49.078;8.578;2023-03-30T10:08:50;14.10;99.90
12089;DHT22;6107;49.078;8.578;2023-03-30T10:11:21;14.20;99.90
12089;DHT22;6107;49.078;8.578;2023-03-30T10:13:54;14.60;99.90
12089;DHT22;6107;49.078;8.578;2023-03-30T10:16:27;14.90;99.90
12089;DHT22;6107;49.078;8.578;2023-03-30T10:18:58;14.80;99.90
12089;DHT22;6107;49.078;8.578;2023-03-30T10:21:24;14.80;99.90
12089;DHT22;6107;49.078;8.578;2023-03-30T10:24:18;14.90;99.90
12089;DHT22;6107;49.078;8.578;2023-03-30T10:26:47;14.80;99.90
12089;DHT22;6107;49.078;8.578;2023-03-30T10:29:17;14.80;99.90
12089;DHT22;6107;49.078;8.578;2023-03-30T10:31:46;14.90;99.90
12089;DHT22;6107;49.078;8.578;2023-03-30T10:34:36;15.20;99.90
12089;DHT22;6107;49.078;8.578;2023-03-30T10:37:08;15.70;99.90
12089;DHT22;6107;49.078;8.578;2023-03-30T10:39:37;15.90;99.90
12089;DHT22;6107;49.078;8.578;2023-03-30T10:42:04;16.10;99.90
12089;DHT22;6107;49.078;8.578;2023-03-30T10:44:40;16.40;99.90
12089;DHT22;6107;49.078;8.578;2023-03-30T10:47:16;16.40;99.90
12089;DHT22;6107;49.078;8.578;2023-03-30T10:49:53;16.40;99.90
12089;DHT22;6107;49.078;8.578;2023-03-30T10:55:42;16.00;99.90
12089;DHT22;6107;49.078;8.578;2023-03-30T11:01:11;16.00;99.90
12089;DHT22;6107;49.078;8.578;2023-03-30T11:03:44;16.10;99.90
12089;DHT22;6107;49.078;8.578;2023-03-30T11:06:20;16.20;99.90
12089;DHT22;6107;49.078;8.578;2023-03-30T11:08:49;16.20;99.90
12089;DHT22;6107;49.078;8.578;2023-03-30T11:11:28;15.90;99.90
12089;DHT22;6107;49.078;8.578;2023-03-30T11:14:00;15.80;99.90
12089;DHT22;6107;49.078;8.578;2023-03-30T11:16:41;15.80;99.90
12089;DHT22;6107;49.078;8.578;2023-03-30T11:19:37;15.70;99.90
12089;DHT22;6107;49.078;8.578;2023-03-30T11:24:33;15.60;99.90
12089;DHT22;6107;49.078;8.578;2023-03-30T11:27:09;15.80;99.90
12089;DHT22;6107;49.078;8.578;2023-03-30T11:29:47;16.30;99.90
12089;DHT22;6107;49.078;8.578;2023-03-30T11:40:46;17.20;99.90
12089;DHT22;6107;49.078;8.578;2023-03-30T11:43:17;17.10;99.90
12089;DHT22;6107;49.078;8.578;2023-03-30T11:46:05;17.00;99.90
12089;DHT22;6107;49.078;8.578;2023-03-30T11:51:35;17.30;99.90
12089;DHT22;6107;49.078;8.578;2023-03-30T11:54:37;17.20;99.90
12089;DHT22;6107;49.078;8.578;2023-03-30T11:57:32;16.90;99.90
12089;DHT22;6107;49.078;8.578;2023-03-30T12:02:49;17.80;99.90
12089;DHT22;6107;49.078;8.578;2023-03-30T12:05:35;17.80;99.90
12089;DHT22;6107;49.078;8.578;2023-03-30T12:10:52;17.90;99.90
12089;DHT22;6107;49.078;8.578;2023-03-30T12:13:20;17.70;99.90
12089;DHT22;6107;49.078;8.578;2023-03-30T12:16:06;18.30;99.90
12089;DHT22;6107;49.078;8.578;2023-03-30T12:19:55;19.20;99.90
12089;DHT22;6107;49.078;8.578;2023-03-30T12:21:59;18.60;99.90
12089;DHT22;6107;49.078;8.578;2023-03-30T12:24:37;18.30;99.90
12089;DHT22;6107;49.078;8.578;2023-03-30T12:27:04;18.50;99.90
12089;DHT22;6107;49.078;8.578;2023-03-30T12:29:51;18.80;99.90
12089;DHT22;6107;49.078;8.578;2023-03-30T12:32:27;18.60;99.90
12089;DHT22;6107;49.078;8.578;2023-03-30T12:34:53;17.70;99.90
12089;DHT22;6107;49.078;8.578;2023-03-30T12:37:33;17.40;99.90
12089;DHT22;6107;49.078;8.578;2023-03-30T12:39:59;17.50;99.90
12089;DHT22;6107;49.078;8.578;2023-03-30T12:42:35;16.80;99.90
12089;DHT22;6107;49.078;8.578;2023-03-30T12:48:02;15.70;99.90
12089;DHT22;6107;49.078;8.578;2023-03-30T12:56:21;15.20;99.90
12089;DHT22;6107;49.078;8.578;2023-03-30T13:04:44;15.00;99.90
12089;DHT22;6107;49.078;8.578;2023-03-30T13:07:23;15.10;99.90
12089;DHT22;6107;49.078;8.578;2023-03-30T13:10:03;15.10;99.90
12089;DHT22;6107;49.078;8.578;2023-03-30T13:12:47;15.10;99.90
12089;DHT22;6107;49.078;8.578;2023-03-30T13:15:31;15.10;99.90
12089;DHT22;6107;49.078;8.578;2023-03-30T13:17:58;15.00;99.90
12089;DHT22;6107;49.078;8.578;2023-03-30T13:20:31;15.40;99.90
12089;DHT22;6107;49.078;8.578;2023-03-30T13:25:43;16.70;99.90
12089;DHT22;6107;49.078;8.578;2023-03-30T13:28:34;17.50;99.90
12089;DHT22;6107;49.078;8.578;2023-03-30T13:34:30;17.60;99.90
12089;DHT22;6107;49.078;8.578;2023-03-30T13:42:49;18.40;99.90
12089;DHT22;6107;49.078;8.578;2023-03-30T13:50:24;18.80;99.90
12089;DHT22;6107;49.078;8.578;2023-03-30T13:52:53;18.30;99.90
12089;DHT22;6107;49.078;8.578;2023-03-30T13:55:46;18.70;99.90
12089;DHT22;6107;49.078;8.578;2023-03-30T13:58:22;18.10;99.90
12089;DHT22;6107;49.078;8.578;2023-03-30T14:01:00;17.80;99.90
12089;DHT22;6107;49.078;8.578;2023-03-30T14:04:11;17.50;99.90
12089;DHT22;6107;49.078;8.578;2023-03-30T14:06:19;17.00;99.90
12089;DHT22;6107;49.078;8.578;2023-03-30T14:08:49;16.70;99.90
12089;DHT22;6107;49.078;8.578;2023-03-30T14:11:32;16.50;99.90
12089;DHT22;6107;49.078;8.578;2023-03-30T14:14:01;16.80;99.90
12089;DHT22;6107;49.078;8.578;2023-03-30T14:16:31;18.10;99.90
12089;DHT22;6107;49.078;8.578;2023-03-30T14:19:27;18.10;99.90
12089;DHT22;6107;49.078;8.578;2023-03-30T14:21:55;19.10;99.90
12089;DHT22;6107;49.078;8.578;2023-03-30T14:24:28;19.00;99.90
12089;DHT22;6107;49.078;8.578;2023-03-30T14:27:00;18.40;99.90
12089;DHT22;6107;49.078;8.578;2023-03-30T14:29:26;18.00;99.90
12089;DHT22;6107;49.078;8.578;2023-03-30T14:31:54;17.40;99.90
12089;DHT22;6107;49.078;8.578;2023-03-30T14:34:25;17.30;99.90
12089;DHT22;6107;49.078;8.578;2023-03-30T14:37:13;17.00;99.90
12089;DHT22;6107;49.078;8.578;2023-03-30T14:39:53;17.00;99.90
12089;DHT22;6107;49.078;8.578;2023-03-30T14:42:29;16.60;99.90
12089;DHT22;6107;49.078;8.578;2023-03-30T14:44:58;16.90;99.90
12089;DHT22;6107;49.078;8.578;2023-03-30T14:47:25;16.90;99.90
12089;DHT22;6107;49.078;8.578;2023-03-30T14:49:54;16.90;99.90
12089;DHT22;6107;49.078;8.578;2023-03-30T14:52:26;16.70;99.90
12089;DHT22;6107;49.078;8.578;2023-03-30T14:54:55;16.70;99.90
12089;DHT22;6107;49.078;8.578;2023-03-30T14:57:22;16.60;99.90
12089;DHT22;6107;49.078;8.578;2023-03-30T15:00:18;16.40;99.90
12089;DHT22;6107;49.078;8.578;2023-03-30T15:02:48;16.40;99.90
12089;DHT22;6107;49.078;8.578;2023-03-30T15:05:17;16.50;99.90
12089;DHT22;6107;49.078;8.578;2023-03-30T15:07:51;16.50;99.90
12089;DHT22;6107;49.078;8.578;2023-03-30T15:10:42;16.60;99.90
12089;DHT22;6107;49.078;8.578;2023-03-30T15:13:18;16.50;99.90
12089;DHT22;6107;49.078;8.578;2023-03-30T15:15:45;16.60;99.90
12089;DHT22;6107;49.078;8.578;2023-03-30T15:18:17;17.00;99.90
12089;DHT22;6107;49.078;8.578;2023-03-30T15:20:44;17.00;99.90
12089;DHT22;6107;49.078;8.578;2023-03-30T15:23:11;17.40;99.90
12089;DHT22;6107;49.078;8.578;2023-03-30T15:25:38;17.40;99.90
12089;DHT22;6107;49.078;8.578;2023-03-30T15:28:11;17.40;99.90
12089;DHT22;6107;49.078;8.578;2023-03-30T15:30:40;17.30;99.90
12089;DHT22;6107;49.078;8.578;2023-03-30T15:33:52;17.00;99.90
12089;DHT22;6107;49.078;8.578;2023-03-30T15:38:52;17.50;99.90
12089;DHT22;6107;49.078;8.578;2023-03-30T15:41:22;18.00;99.90
12089;DHT22;6107;49.078;8.578;2023-03-30T15:43:55;18.20;99.90
12089;DHT22;6107;49.078;8.578;2023-03-30T15:46:21;18.50;99.90
12089;DHT22;6107;49.078;8.578;2023-03-30T15:48:49;18.40;99.90
12089;DHT22;6107;49.078;8.578;2023-03-30T15:56:55;18.00;99.90
12089;DHT22;6107;49.078;8.578;2023-03-30T15:59:30;18.20;99.90
12089;DHT22;6107;49.078;8.578;2023-03-30T16:02:02;18.20;99.90
12089;DHT22;6107;49.078;8.578;2023-03-30T16:04:30;17.70;99.90
12089;DHT22;6107;49.078;8.578;2023-03-30T16:06:56;17.20;99.90
12089;DHT22;6107;49.078;8.578;2023-03-30T16:09:22;17.30;99.90
12089;DHT22;6107;49.078;8.578;2023-03-30T16:11:48;17.10;99.90
12089;DHT22;6107;49.078;8.578;2023-03-30T16:14:17;16.60;99.90
12089;DHT22;6107;49.078;8.578;2023-03-30T16:16:45;16.00;99.90
12089;DHT22;6107;49.078;8.578;2023-03-30T16:19:13;16.50;99.90
12089;DHT22;6107;49.078;8.578;2023-03-30T16:21:39;16.50;99.90
12089;DHT22;6107;49.078;8.578;2023-03-30T16:24:05;16.40;99.90
12089;DHT22;6107;49.078;8.578;2023-03-30T16:26:31;16.40;99.90
12089;DHT22;6107;49.078;8.578;2023-03-30T16:28:56;16.80;99.90
12089;DHT22;6107;49.078;8.578;2023-03-30T16:31:23;16.70;99.90
12089;DHT22;6107;49.078;8.578;2023-03-30T16:33:49;16.40;99.90
12089;DHT22;6107;49.078;8.578;2023-03-30T16:36:17;16.60;99.90
12089;DHT22;6107;49.078;8.578;2023-03-30T16:38:44;16.50;99.90
12089;DHT22;6107;49.078;8.578;2023-03-30T16:41:21;16.20;99.90
12089;DHT22;6107;49.078;8.578;2023-03-30T16:43:47;16.00;99.90
12089;DHT22;6107;49.078;8.578;2023-03-30T16:46:18;15.90;99.90
12089;DHT22;6107;49.078;8.578;2023-03-30T16:48:44;15.90;99.90
12089;DHT22;6107;49.078;8.578;2023-03-30T16:51:12;15.60;99.90
12089;DHT22;6107;49.078;8.578;2023-03-30T16:53:37;15.50;99.90
12089;DHT22;6107;49.078;8.578;2023-03-30T16:56:03;15.50;99.90
12089;DHT22;6107;49.078;8.578;2023-03-30T16:58:29;15.50;99.90
12089;DHT22;6107;49.078;8.578;2023-03-30T17:00:54;15.50;99.90
12089;DHT22;6107;49.078;8.578;2023-03-30T17:03:27;15.50;99.90
12089;DHT22;6107;49.078;8.578;2023-03-30T17:05:53;15.50;99.90
12089;DHT22;6107;49.078;8.578;2023-03-30T17:08:27;15.60;99.90
12089;DHT22;6107;49.078;8.578;2023-03-30T17:10:55;15.40;99.90
12089;DHT22;6107;49.078;8.578;2023-03-30T17:13:21;15.30;99.90
12089;DHT22;6107;49.078;8.578;2023-03-30T17:15:48;15.40;99.90
12089;DHT22;6107;49.078;8.578;2023-03-30T17:18:18;15.50;99.90
12089;DHT22;6107;49.078;8.578;2023-03-30T17:20:46;15.50;99.90
12089;DHT22;6107;49.078;8.578;2023-03-30T17:25:41;15.40;99.90
12089;DHT22;6107;49.078;8.578;2023-03-30T17:28:09;15.40;99.90
12089;DHT22;6107;49.078;8.578;2023-03-30T17:30:36;15.30;99.90
12089;DHT22;6107;49.078;8.578;2023-03-30T17:33:04;15.30;99.90
12089;DHT22;6107;49.078;8.578;2023-03-30T17:35:35;15.30;99.90
12089;DHT22;6107;49.078;8.578;2023-03-30T17:38:01;15.30;99.90
12089;DHT22;6107;49.078;8.578;2023-03-30T17:40:28;15.30;99.90
12089;DHT22;6107;49.078;8.578;2023-03-30T17:42:55;15.30;99.90
12089;DHT22;6107;49.078;8.578;2023-03-30T17:45:23;15.20;99.90
12089;DHT22;6107;49.078;8.578;2023-03-30T17:47:50;15.20;99.90
12089;DHT22;6107;49.078;8.578;2023-03-30T17:50:28;15.20;99.90
12089;DHT22;6107;49.078;8.578;2023-03-30T17:52:55;15.20;99.90
12089;DHT22;6107;49.078;8.578;2023-03-30T17:55:23;15.20;99.90
12089;DHT22;6107;49.078;8.578;2023-03-30T17:57:48;15.20;99.90
12089;DHT22;6107;49.078;8.578;2023-03-30T18:00:32;15.20;99.90
12089;DHT22;6107;49.078;8.578;2023-03-30T18:02:58;15.30;99.90